Burns Pinion Ridge Reserve, California Weather observations

Data are for 10 minute period ending at time listed.
 Day   Time   Solar   Ave.   Ave.  Ave.  Vector  Max.   Baro.   Total    
  of    of     Rad.   Air    Rel.  Wind   Wind   Wind  Press.  Precip.   
Year   Day            Temp.  Hum.  Speed  Dir.   Gust                    
2014   (PST)  Kw/m2    F      %     mph   deg.    mph    mb.     in.     
-------------------------------------------------------------------------
 352   12:10   0.56   46.3    55    3.2    84     8.0   878.2    0.00 
 352   12:20   0.56   46.3    55    3.8    81     9.0   878.1    0.00 
 352   12:30   0.55   47.1    52    2.6    64     6.8   878.1    0.00 
 352   12:40   0.55   48.0    52    3.3    45     7.8   878.1    0.00 
 352   12:50   0.53   48.0    52    3.7    49     9.0   878.0    0.00 
 352   13:00   0.52   47.5    53    3.7    68     7.5   877.9    0.00 
 352   13:10   0.50   47.7    52    3.5    80     7.7   877.8    0.00 
 352   13:20   0.49   47.8    52    4.1    81     9.1   877.7    0.00 
 352   13:30   0.48   49.0    51    3.1    84     7.3   877.6    0.00 
 352   13:40   0.46   49.1    50    4.5   129     8.8   877.7    0.00 
 352   13:50   0.44   50.1    49    6.8   153    11.0   877.7    0.00 
 352   14:00   0.41   50.1    48    6.0   176     9.9   877.7    0.00 
 352   14:10   0.40   50.1    48    4.8   213    10.6   877.7    0.00 
 352   14:20   0.38   49.9    48    3.5   259     9.3   877.6    0.00 
 352   14:30   0.35   50.4    48    4.8   211     9.1   877.5    0.00 
 352   14:40   0.33   50.1    48    4.5   243     7.2   877.6    0.00 
 352   14:50   0.30   49.8    48    3.3   231     5.8   877.6    0.00 
 352   15:00   0.27   50.6    47    1.4    25     4.0   877.7    0.00 
 352   15:10   0.15   50.3    48    3.1   286     5.8   877.8    0.00 
 352   15:20   0.17   49.2    51    5.4   324    11.1   877.9    0.00 
 352   15:30   0.04   47.0    55    9.0   356    13.8   878.0    0.00 
 352   15:40   0.07   46.0    58    8.7   354    13.7   878.1    0.00 
 352   15:50   0.12   47.3    56    8.4   360    13.2   878.2    0.00 
 352   16:00   0.09   47.0    56    8.5     0    14.0   878.4    0.00 
 352   16:10   0.04   46.0    58    4.2    29     8.4   878.5    0.00 
 352   16:20   0.01   44.6    62    4.7    43     9.1   878.7    0.00 
 352   16:30   0.01   44.0    63    4.7    40     8.6   878.8    0.00 
 352   16:40   0.01   43.4    64    4.9    49     9.2   878.9    0.00 
 352   16:50   0.00   42.8    66    2.8    48     7.2   879.1    0.00 
 352   17:00   0.00   42.1    68    3.1    44     5.2   879.2    0.00 
 352   17:10   0.00   41.8    68    3.4    41     6.4   879.3    0.00 
 352   17:20   0.00   41.6    69    3.0    49     5.5   879.3    0.00 
 352   17:30   0.00   41.2    69    3.6    48     7.5   879.4    0.00 
 352   17:40   0.00   41.3    67    3.5    48     6.9   879.5    0.00 
 352   17:50   0.00   41.0    67    3.3    49     5.6   879.7    0.00 
 352   18:00   0.00   40.9    66    3.0    51     6.0   879.8    0.00 
 352   18:10   0.00   41.0    66    2.8    48     8.3   879.9    0.00 
 352   18:20   0.00   40.8    66    1.6    26     4.8   880.0    0.00 
 352   18:30   0.00   40.7    66    3.5    41     6.9   880.1    0.00 
 352   18:40   0.00   40.4    67    1.8    25     4.6   880.1    0.00 
 352   18:50   0.00   39.8    69    2.2    16     5.3   880.2    0.00 
 352   19:00   0.00   40.0    69    0.4     8     2.3   880.2    0.00 
 352   19:10   0.00   37.5    76    0.7    40     2.2   880.1    0.00 
 352   19:20   0.00   35.6    81    0.1    42     1.0   880.2    0.00 
 352   19:30   0.00   34.4    84    2.4    26     4.4   880.3    0.00 
 352   19:40   0.00   34.7    84    2.7    18     4.2   880.4    0.00 
 352   19:50   0.00   34.8    83    1.9    36     4.2   880.5    0.00 
 352   20:00   0.00   37.1    75    2.4    32     4.7   880.5    0.00 
 352   20:10   0.00   38.9    68    2.4    31     4.8   880.5    0.00 
 352   20:20   0.00   37.2    74    1.1   317     2.8   880.5    0.00 
 352   20:30   0.00   35.0    80    0.8   339     2.0   880.5    0.00 
 352   20:40   0.00   33.9    84    0.0     0     0.0   880.6    0.00 
 352   20:50   0.00   32.8    87    0.9   337     2.0   880.7    0.00 
 352   21:00   0.00   32.7    89    1.9   335     3.6   880.7    0.00 
 352   21:10   0.00   33.0    89    1.6   330     3.5   880.7    0.00 
 352   21:20   0.00   32.7    89    1.5   314     2.5   880.8    0.00 
 352   21:30   0.00   32.9    90    2.1   319     2.8   880.8    0.00 
 352   21:40   0.00   33.5    88    1.9   330     3.5   880.7    0.00 
 352   21:50   0.00   33.2    88    1.2   330     2.7   880.6    0.00 
 352   22:00   0.00   32.6    89    0.2   349     1.3   880.7    0.00 
 352   22:10   0.00   31.9    91    1.0   340     1.8   880.7    0.00 
 352   22:20   0.00   32.0    92    1.4   336     2.2   880.7    0.00 
 352   22:30   0.00   32.2    92    0.8   346     1.8   880.7    0.00 
 352   22:40   0.00   32.4    92    0.2   347     1.3   880.7    0.00 
 352   22:50   0.00   31.9    92    1.3   335     3.7   880.7    0.00 
 352   23:00   0.00   32.0    92    0.8   351     2.0   880.7    0.00 
 352   23:10   0.00   32.3    92    1.4     4     2.1   880.6    0.00 
 352   23:20   0.00   32.2    91    0.7     4     1.6   880.5    0.00 
 352   23:30   0.00   32.0    91    0.3   321     2.7   880.6    0.00 
 352   23:40   0.00   31.9    92    2.2   324     3.9   880.6    0.00 
 352   23:50   0.00   32.8    90    1.7   328     3.6   880.6    0.00 
 353    0:00   0.00   32.6    89    0.9   333     2.7   880.5    0.00 
 353    0:10   0.00   32.2    90    0.0     0     0.0   880.5    0.00 
 353    0:20   0.00   31.7    91    0.0     0     0.0   880.4    0.00 
 353    0:30   0.00   31.3    92    0.1   320     1.1   880.4    0.00 
 353    0:40   0.00   31.2    92    0.0   333     1.0   880.3    0.00 
 353    0:50   0.00   31.2    92    0.8   309     2.0   880.3    0.00 
 353    1:00   0.00   31.1    92    0.1   349     1.5   880.2    0.00 
 353    1:10   0.00   31.3    92    0.3   330     1.8   880.2    0.00 
 353    1:20   0.00   31.2    92    0.5   348     1.8   880.2    0.00 
 353    1:30   0.00   31.3    92    0.5   355     1.8   880.1    0.00 
 353    1:40   0.00   31.0    92    0.3     1     1.2   880.1    0.00 
 353    1:50   0.00   31.0    92    0.0   306     0.7   880.1    0.00 
 353    2:00   0.00   30.8    92    0.4   309     1.5   880.1    0.00 
 353    2:10   0.00   30.8    93    0.6   303     2.0   880.1    0.00 
 353    2:20   0.00   30.7    93    0.2   322     1.5   880.1    0.00 
 353    2:30   0.00   30.2    94    0.7   327     2.6   880.1    0.00 
 353    2:40   0.00   30.2    94    0.6   327     2.6   880.1    0.00 
 353    2:50   0.00   30.4    94    0.0     0     0.0   880.1    0.00 
 353    3:00   0.00   30.3    94    0.0     0     0.0   880.1    0.00 
 353    3:10   0.00   30.4    94    0.0     0     0.0   880.1    0.00 
 353    3:20   0.00   30.3    94    0.3    76     3.4   879.9    0.00 
 353    3:30   0.00   30.2    94    2.7    46     3.4   879.8    0.00 
 353    3:40   0.00   30.8    94    1.5   360     2.7   879.9    0.00 
 353    3:50   0.00   30.4    93    0.8   332     1.8   879.9    0.00 
 353    4:00   0.00   30.4    94    0.4     4     1.0   879.9    0.00 
 353    4:10   0.00   30.2    94    0.5    22     3.7   879.8    0.00 
 353    4:20   0.00   30.6    94    2.2     5     4.2   879.9    0.00 
 353    4:30   0.00   30.9    93    1.1   350     2.4   879.9    0.00 
 353    4:40   0.00   30.6    93    2.0   337     2.6   880.0    0.00 
 353    4:50   0.00   30.6    94    1.7   354     2.6   880.1    0.00 
 353    5:00   0.00   30.4    94    1.7     6     2.5   880.1    0.00 
 353    5:10   0.00   31.0    94    1.9   359     2.9   880.1    0.00 
 353    5:20   0.00   31.4    94    2.5     0     3.3   880.2    0.00 
 353    5:30   0.00   31.4    93    1.9    24     4.8   880.3    0.00 
 353    5:40   0.00   32.9    90    1.8   309     3.9   880.4    0.00 
 353    5:50   0.00   32.9    88    0.2     1     1.2   880.7    0.00 
 353    6:00   0.00   32.2    89    0.4    37     1.2   880.6    0.00 
 353    6:10   0.00   32.0    90    0.0     0     0.0   880.7    0.00 
 353    6:20   0.00   31.7    91    0.0     0     0.0   880.5    0.00 
 353    6:30   0.00   31.4    92    0.0   161     0.9   880.5    0.00 
 353    6:40   0.00   31.4    92    0.1   161     0.8   880.6    0.00 
 353    6:50   0.00   31.3    92    0.3   270     1.6   880.7    0.00 
 353    7:00   0.01   30.8    93    0.0     0     0.0   880.7    0.00 
 353    7:10   0.01   30.4    93    0.0     0     0.0   880.7    0.00 
 353    7:20   0.02   30.7    94    0.0   275     0.6   880.7    0.00 
 353    7:30   0.04   31.1    94    0.1   275     0.9   880.5    0.00 
 353    7:40   0.05   32.1    93    1.3   145     2.2   880.5    0.00 
 353    7:50   0.11   36.0    87    1.7   156     3.1   880.6    0.00 
 353    8:00   0.06   39.5    77    1.5   138     2.0   880.6    0.00 
 353    8:10   0.12   39.6    78    1.3   182     3.3   880.6    0.00 
 353    8:20   0.21   44.1    68    2.3   169     4.5   880.7    0.00 
 353    8:30   0.27   45.5    62    1.9   156     3.9   880.9    0.00 
 353    8:40   0.33   47.1    58    2.3   166     6.6   880.9    0.00 
 353    8:50   0.23   45.5    59    3.7   192     9.2   881.1    0.00 
 353    9:00   0.24   43.9    63    3.9   200     8.6   881.3    0.00 
 353    9:10   0.35   44.9    61    5.3   209    11.1   881.5    0.00 
 353    9:20   0.39   45.8    59    4.2   202     8.3   881.5    0.00 
 353    9:30   0.41   46.6    57    5.3   194    13.0   881.5    0.00 
 353    9:40   0.42   46.4    58    5.7   200    11.0   881.4    0.00 
 353    9:50   0.45   46.7    58    5.4   205     9.9   881.3    0.00 
 353   10:00   0.46   46.9    56    6.3   198    13.7   881.2    0.00 
 353   10:10   0.48   47.0    55    6.6   200    12.5   881.1    0.00 
 353   10:20   0.50   47.0    55    6.7   207    13.7   881.1    0.00 
 353   10:30   0.51   48.2    52    5.5   186     9.7   881.0    0.00 
 353   10:40   0.52   48.2    51    6.1   197    12.5   880.8    0.00 
 353   10:50   0.53   48.2    51    6.1   196    12.1   880.7    0.00 
 353   11:00   0.55   48.2    52    6.6   204    12.1   880.4    0.00 
 353   11:10   0.55   48.8    52    5.3   193    11.5   880.2    0.00 
 353   11:20   0.56   48.4    52    6.9   208    12.7   880.0    0.00 
 353   11:30   0.56   48.2    51    8.2   213    13.4   879.9    0.00 
 353   11:40   0.54   48.0    50    8.7   214    12.4   879.7    0.00 
 353   11:50   0.56   48.4    50    8.4   210    13.2   879.6    0.00 
 353   12:00   0.56   48.4    50    8.4   212    13.7   879.5    0.00 

Return to Burns Pinion Ridge Reserve graphs page.


Western Regional Climate Center,wrcc@dri.edu